Time;durP1;ratioP1;P1;durP2;ratioP2;P2;SDS_P1;SDS_P2;PMS_P1;PMS_P2;Temp;Humidity;BMP_temperature;BMP_pressure;BME280_temperature;BME280_humidity;BME280_pressure;Samples;Min_cycle;Max_cycle;Signal;HPM_P1;HPM_P2
2022/05/30 00:00:46;;;;;;;5.60;3.50;;;;;;100011.83;;;;107516;1278;28797;-32
2022/05/30 00:03:13;;;;;;;5.10;3.10;;;;;;100011.47;;;;107517;1277;28706;-32
2022/05/30 00:05:49;;;;;;;7.00;3.50;;;;;;100009.31;;;;107496;1277;27388;-32
2022/05/30 00:08:18;;;;;;;5.70;3.40;;;;;;100004.99;;;;107551;1277;28611;-32
2022/05/30 00:10:45;;;;;;;6.30;3.60;;;;;;100003.39;;;;107557;1277;28693;-32
2022/05/30 00:13:12;;;;;;;5.70;3.50;;;;;;99994.84;;;;107516;1277;28648;-31
2022/05/30 00:15:39;;;;;;;6.40;3.30;;;;;;99994.83;;;;107516;1278;27283;-31
2022/05/30 00:18:09;;;;;;;6.30;3.70;;;;;;99995.60;;;;107543;1277;29219;-31
2022/05/30 00:20:37;;;;;;;7.00;3.70;;;;;;99990.75;;;;107563;1277;27390;-31
2022/05/30 00:23:04;;;;;;;6.00;4.10;;;;;;99987.88;;;;107574;1277;29676;-31
2022/05/30 00:25:31;;;;;;;5.60;3.40;;;;;;99987.64;;;;107537;1278;29635;-32
2022/05/30 00:27:57;;;;;;;7.50;4.00;;;;;;99986.20;;;;107532;1277;27868;-31
2022/05/30 00:30:24;;;;;;;7.10;3.80;;;;;;99985.70;;;;107526;1277;28753;-31
2022/05/30 00:32:50;;;;;;;6.30;3.70;;;;;;99983.66;;;;107537;1277;28727;-31
2022/05/30 00:35:17;;;;;;;5.70;3.80;;;;;;99984.34;;;;107539;1277;29481;-31
2022/05/30 00:37:44;;;;;;;5.60;3.80;;;;;;99984.66;;;;107576;1277;28595;-31
2022/05/30 00:40:10;;;;;;;5.50;3.80;;;;;;99982.58;;;;107522;1277;27420;-31
2022/05/30 00:42:37;;;;;;;6.30;3.90;;;;;;99977.15;;;;107537;1277;29151;-31
2022/05/30 00:45:05;;;;;;;7.50;3.80;;;;;;99976.70;;;;107547;1277;28672;-31
2022/05/30 00:47:32;;;;;;;7.90;3.80;;;;;;99975.67;;;;107576;1278;28725;-31
2022/05/30 00:49:58;;;;;;;6.30;3.60;;;;;;99973.81;;;;107561;1277;26473;-32
2022/05/30 00:52:33;;;;;;;6.20;4.00;;;;;;99973.23;;;;107548;1277;27381;-32
2022/05/30 00:55:20;;;;;;;6.30;3.90;;;;;;99969.65;;;;107548;1278;28887;-32
2022/05/30 00:57:47;;;;;;;7.20;4.00;;;;;;99964.44;;;;107520;1278;28875;-32
2022/05/30 01:00:25;;;;;;;6.60;4.20;;;;;;99959.79;;;;107421;1277;28212;-32
2022/05/30 01:08:28;;;;;;;6.70;4.70;;;;;;99961.38;;;;107494;1277;29787;-32
2022/05/30 01:10:55;;;;;;;6.50;4.00;;;;;;99960.55;;;;107530;1277;27306;-32
2022/05/30 01:13:23;;;;;;;6.30;4.30;;;;;;99952.21;;;;107514;1278;28763;-32
2022/05/30 01:15:50;;;;;;;5.80;4.20;;;;;;99948.04;;;;107512;1277;29607;-32
2022/05/30 01:18:34;;;;;;;6.00;3.80;;;;;;99947.77;;;;107507;1277;28709;-32
2022/05/30 01:21:51;;;;;;;6.90;4.30;;;;;;99947.23;;;;107524;1278;28667;-32
2022/05/30 01:24:39;;;;;;;7.40;4.20;;;;;;99945.37;;;;107541;1278;28537;-32
2022/05/30 01:27:38;;;;;;;6.20;3.90;;;;;;99943.54;;;;107519;1277;28902;-32
2022/05/30 01:30:10;;;;;;;7.10;4.30;;;;;;99945.40;;;;107523;1278;26606;-32
2022/05/30 01:32:37;;;;;;;6.00;4.40;;;;;;99945.14;;;;107434;1277;29737;-32
2022/05/30 01:35:05;;;;;;;6.50;4.30;;;;;;99936.23;;;;107513;1277;28067;-32
2022/05/30 01:37:31;;;;;;;7.10;4.70;;;;;;99923.88;;;;107557;1277;29717;-32
2022/05/30 01:39:58;;;;;;;5.70;4.20;;;;;;99917.99;;;;107527;1277;28698;-32
2022/05/30 01:42:25;;;;;;;6.70;4.10;;;;;;99914.49;;;;107552;1277;28674;-32
2022/05/30 01:44:53;;;;;;;7.70;4.70;;;;;;99918.83;;;;107536;1277;27556;-32
2022/05/30 01:47:19;;;;;;;6.00;4.40;;;;;;99923.15;;;;107569;1278;27643;-32
2022/05/30 01:49:46;;;;;;;6.00;4.40;;;;;;99916.88;;;;107466;1278;28740;-32
2022/05/30 01:52:13;;;;;;;7.40;4.60;;;;;;99915.25;;;;107585;1277;29725;-32
2022/05/30 01:54:39;;;;;;;7.00;4.80;;;;;;99914.56;;;;107554;1277;28710;-32
2022/05/30 01:57:06;;;;;;;6.70;4.70;;;;;;99914.09;;;;107531;1277;27312;-31
2022/05/30 01:59:32;;;;;;;6.80;4.70;;;;;;99913.84;;;;107510;1277;29635;-31
2022/05/30 02:01:59;;;;;;;7.60;4.60;;;;;;99913.55;;;;107552;1277;27297;-31
2022/05/30 02:04:26;;;;;;;6.80;4.40;;;;;;99918.40;;;;107531;1277;29226;-31
2022/05/30 02:06:52;;;;;;;7.80;4.20;;;;;;99911.48;;;;107525;1278;26462;-31
2022/05/30 02:09:19;;;;;;;7.20;5.00;;;;;;99912.71;;;;107527;1277;27204;-31
2022/05/30 02:11:46;;;;;;;6.90;5.00;;;;;;99913.77;;;;107548;1277;28677;-31
2022/05/30 02:14:12;;;;;;;7.20;4.90;;;;;;99913.95;;;;107546;1277;29612;-31
2022/05/30 02:19:24;;;;;;;6.80;4.70;;;;;;99915.96;;;;107541;1278;27577;-31
2022/05/30 02:21:51;;;;;;;6.80;4.40;;;;;;99916.55;;;;107512;1278;28708;-31
2022/05/30 02:24:18;;;;;;;7.50;4.60;;;;;;99915.34;;;;107519;1277;28659;-31
2022/05/30 02:26:45;;;;;;;6.60;4.40;;;;;;99917.54;;;;107558;1278;27406;-31
2022/05/30 02:29:11;;;;;;;8.00;4.90;;;;;;99917.98;;;;107539;1277;28220;-32
2022/05/30 02:31:38;;;;;;;6.50;4.50;;;;;;99921.73;;;;107404;1278;28702;-32
2022/05/30 02:36:51;;;;;;;7.10;4.60;;;;;;99928.30;;;;107528;1278;28678;-32
2022/05/30 02:39:21;;;;;;;7.10;4.90;;;;;;99934.86;;;;107526;1277;27642;-31
2022/05/30 02:41:49;;;;;;;6.80;5.10;;;;;;99939.92;;;;107518;1277;27681;-31
2022/05/30 02:44:18;;;;;;;6.90;4.60;;;;;;99942.23;;;;107524;1277;28819;-31
2022/05/30 02:46:51;;;;;;;7.10;4.40;;;;;;99946.91;;;;107522;1277;28738;-31
2022/05/30 02:49:19;;;;;;;6.60;4.40;;;;;;99945.03;;;;107519;1277;28738;-31
2022/05/30 02:51:46;;;;;;;5.70;4.40;;;;;;99936.23;;;;107516;1277;29967;-31
2022/05/30 02:54:14;;;;;;;5.80;4.00;;;;;;99932.08;;;;107536;1277;28769;-31
2022/05/30 02:56:41;;;;;;;6.30;4.60;;;;;;99937.03;;;;107535;1277;28686;-31
2022/05/30 02:59:09;;;;;;;6.70;4.80;;;;;;99935.73;;;;107539;1278;27571;-31
2022/05/30 03:01:36;;;;;;;6.20;4.60;;;;;;99937.02;;;;107562;1277;29654;-31
2022/05/30 03:04:05;;;;;;;7.00;4.60;;;;;;99937.08;;;;107510;1278;28067;-31
2022/05/30 03:06:32;;;;;;;6.80;4.80;;;;;;99936.63;;;;107568;1276;28729;-31
2022/05/30 03:08:59;;;;;;;6.30;4.40;;;;;;99939.11;;;;107520;1278;27521;-31
2022/05/30 03:11:26;;;;;;;6.50;4.50;;;;;;99938.20;;;;107507;1278;28739;-31
2022/05/30 03:13:53;;;;;;;6.80;4.30;;;;;;99937.95;;;;107540;1277;27483;-31
2022/05/30 03:16:19;;;;;;;6.70;4.60;;;;;;99938.78;;;;107534;1278;29499;-31
2022/05/30 03:18:46;;;;;;;6.50;4.20;;;;;;99940.12;;;;107499;1277;28652;-31
2022/05/30 03:21:13;;;;;;;6.00;4.30;;;;;;99937.96;;;;107534;1278;27410;-31
2022/05/30 03:23:39;;;;;;;6.30;4.40;;;;;;99939.39;;;;107531;1278;27411;-31
2022/05/30 03:26:07;;;;;;;6.60;4.60;;;;;;99939.65;;;;107490;1277;28027;-31
2022/05/30 03:28:35;;;;;;;7.10;5.00;;;;;;99938.78;;;;107539;1278;28651;-31
2022/05/30 03:31:03;;;;;;;6.80;4.40;;;;;;99940.23;;;;107534;1277;29837;-31
2022/05/30 03:33:29;;;;;;;5.40;4.00;;;;;;99936.14;;;;107539;1278;28803;-31
2022/05/30 03:35:56;;;;;;;6.30;4.50;;;;;;99933.31;;;;107518;1277;28668;-31
2022/05/30 03:38:23;;;;;;;6.50;4.40;;;;;;99936.54;;;;107512;1277;27388;-31
2022/05/30 03:40:49;;;;;;;6.20;4.20;;;;;;99937.63;;;;107528;1278;27819;-31
2022/05/30 03:43:16;;;;;;;5.90;4.30;;;;;;99934.51;;;;107529;1277;29146;-31
2022/05/30 03:45:44;;;;;;;6.60;4.50;;;;;;99934.25;;;;107512;1277;29456;-31
2022/05/30 03:48:14;;;;;;;7.20;4.50;;;;;;99936.98;;;;107555;1278;28723;-31
2022/05/30 03:50:41;;;;;;;6.20;4.60;;;;;;99932.60;;;;107548;1277;27258;-31
2022/05/30 03:53:08;;;;;;;6.00;4.00;;;;;;99935.26;;;;107443;1278;28761;-31
2022/05/30 03:55:40;;;;;;;6.50;3.80;;;;;;99934.95;;;;107527;1278;29630;-31
2022/05/30 03:58:09;;;;;;;6.10;4.00;;;;;;99934.75;;;;107520;1277;28695;-31
2022/05/30 04:00:38;;;;;;;6.20;4.10;;;;;;99934.42;;;;107539;1278;26504;-31
2022/05/30 04:03:05;;;;;;;6.60;4.40;;;;;;99935.02;;;;107556;1278;28712;-31
2022/05/30 04:05:32;;;;;;;6.70;4.10;;;;;;99935.92;;;;107516;1277;27497;-31
2022/05/30 04:07:58;;;;;;;5.90;4.20;;;;;;99934.36;;;;107530;1277;28755;-31
2022/05/30 04:10:26;;;;;;;6.10;4.20;;;;;;99934.69;;;;107503;1275;29664;-31
2022/05/30 04:13:06;;;;;;;5.50;3.90;;;;;;99935.97;;;;107523;1277;28713;-31
2022/05/30 04:15:34;;;;;;;6.00;4.10;;;;;;99932.61;;;;107518;1278;28837;-31
2022/05/30 04:18:00;;;;;;;6.20;3.70;;;;;;99935.68;;;;107531;1277;27477;-31
2022/05/30 04:20:27;;;;;;;7.10;4.60;;;;;;99932.88;;;;107522;1278;27691;-31
2022/05/30 04:22:54;;;;;;;5.80;4.50;;;;;;99929.60;;;;107526;1278;29637;-31
2022/05/30 04:25:21;;;;;;;5.60;4.30;;;;;;99930.09;;;;107511;1277;28639;-31
2022/05/30 04:27:48;;;;;;;5.40;4.10;;;;;;99927.50;;;;107537;1278;27535;-31
2022/05/30 04:30:16;;;;;;;6.00;4.20;;;;;;99923.89;;;;107531;1277;26622;-31
2022/05/30 04:32:43;;;;;;;6.20;4.20;;;;;;99919.88;;;;107540;1277;28358;-31
2022/05/30 04:35:11;;;;;;;6.30;4.40;;;;;;99918.83;;;;107499;1277;28734;-32
2022/05/30 04:37:38;;;;;;;6.60;4.20;;;;;;99919.39;;;;107507;1277;27614;-31
2022/05/30 04:40:08;;;;;;;6.20;4.30;;;;;;99921.05;;;;107557;1277;27344;-31
2022/05/30 04:42:35;;;;;;;6.50;4.10;;;;;;99917.31;;;;107591;1277;29602;-32
2022/05/30 04:45:01;;;;;;;6.50;4.10;;;;;;99916.45;;;;107565;1277;28106;-32
2022/05/30 04:47:28;;;;;;;6.10;4.00;;;;;;99913.35;;;;107530;1278;26608;-31
2022/05/30 04:49:54;;;;;;;6.80;4.00;;;;;;99909.48;;;;107501;1277;27549;-31
2022/05/30 04:52:21;;;;;;;6.10;4.30;;;;;;99907.22;;;;107545;1277;28594;-31
2022/05/30 04:54:48;;;;;;;6.40;4.10;;;;;;99905.02;;;;107529;1278;28692;-31
2022/05/30 04:57:14;;;;;;;5.60;3.80;;;;;;99906.85;;;;107551;1277;29434;-31
2022/05/30 04:59:41;;;;;;;5.30;3.80;;;;;;99904.90;;;;107515;1277;29150;-31
2022/05/30 05:02:09;;;;;;;5.50;3.90;;;;;;99902.90;;;;107526;1278;28658;-31
2022/05/30 05:04:39;;;;;;;6.40;4.50;;;;;;99902.55;;;;107517;1277;29143;-31
2022/05/30 05:07:06;;;;;;;5.30;3.50;;;;;;99898.91;;;;107566;1277;27404;-31
2022/05/30 05:09:47;;;;;;;5.80;3.60;;;;;;99898.43;;;;107470;1278;28801;-31
2022/05/30 05:12:14;;;;;;;5.50;3.70;;;;;;99901.73;;;;107552;1279;26605;-31
2022/05/30 05:14:41;;;;;;;6.30;4.00;;;;;;99903.38;;;;107509;1279;28623;-31
2022/05/30 05:17:09;;;;;;;5.80;3.80;;;;;;99904.55;;;;107507;1277;28681;-31
2022/05/30 05:19:41;;;;;;;5.80;3.70;;;;;;99908.55;;;;107543;1277;28793;-31
2022/05/30 05:22:14;;;;;;;5.60;3.80;;;;;;99909.72;;;;107564;1277;28727;-31
2022/05/30 05:24:41;;;;;;;6.20;3.90;;;;;;99909.61;;;;107539;1277;26647;-31
2022/05/30 05:27:09;;;;;;;5.80;3.60;;;;;;99908.39;;;;107387;1278;214003;-31
2022/05/30 05:29:35;;;;;;;5.50;3.60;;;;;;99908.50;;;;107516;1277;27679;-31
2022/05/30 05:32:04;;;;;;;5.30;3.80;;;;;;99909.32;;;;107547;1277;28534;-31
2022/05/30 05:34:30;;;;;;;6.10;3.90;;;;;;99912.86;;;;107463;1277;28880;-31
2022/05/30 05:36:57;;;;;;;6.40;3.90;;;;;;99912.11;;;;107544;1277;27554;-31
2022/05/30 05:39:24;;;;;;;6.30;3.80;;;;;;99914.20;;;;107525;1277;29530;-32
2022/05/30 05:41:51;;;;;;;6.90;4.10;;;;;;99913.70;;;;107529;1277;26432;-32
2022/05/30 05:44:19;;;;;;;5.70;3.50;;;;;;99914.59;;;;107576;1277;27429;-32
2022/05/30 05:46:46;;;;;;;5.80;3.60;;;;;;99914.06;;;;107552;1277;29610;-32
2022/05/30 05:49:13;;;;;;;6.70;4.30;;;;;;99914.23;;;;107496;1277;27704;-31
2022/05/30 05:51:40;;;;;;;5.90;3.70;;;;;;99912.75;;;;107375;1278;28537;-31
2022/05/30 05:54:07;;;;;;;5.40;4.30;;;;;;99906.39;;;;107513;1277;28627;-32
2022/05/30 05:56:34;;;;;;;6.20;4.00;;;;;;99905.80;;;;107544;1277;28659;-32
2022/05/30 05:59:02;;;;;;;5.70;4.00;;;;;;99901.36;;;;107530;1277;29864;-32
2022/05/30 06:01:33;;;;;;;6.80;4.20;;;;;;99897.80;;;;107514;1277;28287;-32
2022/05/30 06:04:03;;;;;;;5.60;3.50;;;;;;99895.73;;;;107566;1277;28645;-30
2022/05/30 06:06:31;;;;;;;6.80;4.00;;;;;;99896.55;;;;107536;1278;28753;-30
2022/05/30 06:09:01;;;;;;;6.90;3.80;;;;;;99896.77;;;;107538;1277;28660;-30
2022/05/30 06:11:28;;;;;;;6.70;4.00;;;;;;99899.02;;;;107560;1277;28255;-30
2022/05/30 06:13:55;;;;;;;6.20;3.70;;;;;;99896.87;;;;107503;1277;27235;-30
2022/05/30 06:16:25;;;;;;;6.60;3.30;;;;;;99894.42;;;;107521;1277;28732;-30
2022/05/30 06:18:55;;;;;;;6.20;3.80;;;;;;99895.55;;;;107556;1278;29998;-30
2022/05/30 06:21:24;;;;;;;5.60;3.60;;;;;;99896.39;;;;107534;1277;29409;-30
2022/05/30 06:23:54;;;;;;;5.80;3.80;;;;;;99895.73;;;;107559;1277;29407;-30
2022/05/30 06:26:22;;;;;;;5.60;3.50;;;;;;99892.51;;;;107518;1278;26690;-30
2022/05/30 06:28:49;;;;;;;6.20;3.80;;;;;;99893.16;;;;107539;1278;28688;-34
2022/05/30 06:31:24;;;;;;;6.70;3.60;;;;;;99893.06;;;;107528;1277;28745;-30
2022/05/30 06:33:52;;;;;;;6.70;3.70;;;;;;99888.45;;;;107527;1278;28672;-30
2022/05/30 06:36:22;;;;;;;6.40;3.60;;;;;;99891.66;;;;107532;1277;29359;-30
2022/05/30 06:38:50;;;;;;;7.60;3.60;;;;;;99888.98;;;;107552;1278;28834;-30
2022/05/30 06:41:21;;;;;;;8.30;4.20;;;;;;99888.88;;;;107543;1277;28736;-30
2022/05/30 06:44:10;;;;;;;6.90;4.00;;;;;;99888.42;;;;107527;1277;27499;-29
2022/05/30 06:46:38;;;;;;;7.20;4.00;;;;;;99890.92;;;;107518;1278;27657;-29
2022/05/30 06:49:06;;;;;;;6.20;3.60;;;;;;99889.08;;;;107552;1277;28731;-30
2022/05/30 06:51:35;;;;;;;5.40;3.80;;;;;;99888.75;;;;107571;1278;28760;-30
2022/05/30 06:54:04;;;;;;;6.00;4.10;;;;;;99888.66;;;;107564;1278;28690;-30
2022/05/30 06:56:34;;;;;;;5.00;3.50;;;;;;99887.64;;;;107544;1278;27463;-30
2022/05/30 06:59:01;;;;;;;6.90;3.80;;;;;;99886.72;;;;107535;1277;28743;-30
2022/05/30 07:01:32;;;;;;;6.00;3.30;;;;;;99886.58;;;;107364;1277;27161;-28
2022/05/30 07:03:59;;;;;;;6.40;3.70;;;;;;99889.48;;;;107499;1278;28681;-29
2022/05/30 07:06:32;;;;;;;6.30;3.50;;;;;;99886.29;;;;107505;1279;28546;-29
2022/05/30 07:09:00;;;;;;;6.40;3.70;;;;;;99884.07;;;;107475;1278;28653;-29
2022/05/30 07:11:28;;;;;;;5.80;3.60;;;;;;99883.30;;;;107507;1278;28729;-30
2022/05/30 07:13:54;;;;;;;6.60;3.60;;;;;;99882.54;;;;107480;1277;28159;-30
2022/05/30 07:16:25;;;;;;;5.80;3.50;;;;;;99882.98;;;;107470;1278;27534;-30
2022/05/30 07:18:52;;;;;;;5.20;3.30;;;;;;99878.56;;;;107473;1277;28745;-30
2022/05/30 07:21:20;;;;;;;6.80;3.50;;;;;;99879.41;;;;107499;1278;28500;-30
2022/05/30 07:23:46;;;;;;;6.20;3.50;;;;;;99874.55;;;;107505;1277;26197;-29
2022/05/30 07:26:19;;;;;;;5.80;3.50;;;;;;99876.53;;;;107475;1278;28266;-30
2022/05/30 07:28:47;;;;;;;7.30;3.80;;;;;;99877.77;;;;107491;1277;29583;-29
2022/05/30 07:31:20;;;;;;;5.40;3.20;;;;;;99880.19;;;;107450;1277;27511;-28
2022/05/30 07:33:48;;;;;;;;;;;;;;99881.11;;;;107477;1277;28746;-28
2022/05/30 07:36:24;;;;;;;7.20;3.50;;;;;;99883.05;;;;107500;1278;29553;-29
2022/05/30 07:38:52;;;;;;;6.20;3.30;;;;;;99883.04;;;;107463;1276;28589;-30
2022/05/30 07:41:21;;;;;;;6.30;3.80;;;;;;99882.79;;;;107497;1278;27721;-30
2022/05/30 07:43:48;;;;;;;6.90;3.70;;;;;;99884.09;;;;107522;1277;29631;-31
2022/05/30 07:46:17;;;;;;;5.10;3.70;;;;;;99885.59;;;;107481;1278;27416;-31
2022/05/30 07:48:44;;;;;;;6.20;3.30;;;;;;99883.73;;;;107494;1277;28532;-31
2022/05/30 07:51:14;;;;;;;5.60;3.10;;;;;;99884.83;;;;107520;1278;29421;-31
2022/05/30 07:53:42;;;;;;;5.80;3.60;;;;;;99886.70;;;;107550;1278;27421;-31
2022/05/30 07:56:13;;;;;;;5.60;3.60;;;;;;99880.45;;;;107459;1279;27603;-30
2022/05/30 07:58:40;;;;;;;5.60;3.40;;;;;;99878.99;;;;107507;1278;28607;-28
2022/05/30 08:01:14;;;;;;;6.80;3.70;;;;;;99877.86;;;;107480;1278;28768;-31
2022/05/30 08:03:41;;;;;;;6.30;3.20;;;;;;99875.48;;;;107461;1279;28932;-29
2022/05/30 08:06:13;;;;;;;7.00;3.50;;;;;;99876.40;;;;107529;1277;28677;-29
2022/05/30 08:08:41;;;;;;;7.20;3.70;;;;;;99873.10;;;;107489;1278;28309;-30
2022/05/30 08:11:09;;;;;;;5.90;3.70;;;;;;99874.30;;;;107498;1278;28882;-30
2022/05/30 08:13:35;;;;;;;4.70;3.40;;;;;;99869.86;;;;107488;1277;28666;-30
2022/05/30 08:16:04;;;;;;;5.40;3.30;;;;;;99869.98;;;;107479;1278;28855;-30
2022/05/30 08:18:32;;;;;;;5.60;3.30;;;;;;99869.40;;;;107514;1278;28676;-30
2022/05/30 08:20:59;;;;;;;6.80;3.80;;;;;;99875.23;;;;107508;1277;28705;-30
2022/05/30 08:23:27;;;;;;;5.30;3.60;;;;;;99872.82;;;;107444;1278;27625;-30
2022/05/30 08:25:54;;;;;;;6.60;3.40;;;;;;99877.96;;;;107480;1278;27433;-30
2022/05/30 08:28:22;;;;;;;6.20;3.40;;;;;;99878.14;;;;107503;1278;26750;-30
2022/05/30 08:30:49;;;;;;;4.90;3.10;;;;;;99877.89;;;;107470;1277;29583;-29
2022/05/30 08:33:20;;;;;;;4.90;2.90;;;;;;99878.42;;;;107490;1277;27614;-29
2022/05/30 08:35:58;;;;;;;5.40;3.20;;;;;;99877.83;;;;107487;1278;26436;-29
2022/05/30 08:38:25;;;;;;;5.20;3.40;;;;;;99880.02;;;;107361;1278;27650;-29
2022/05/30 08:43:39;;;;;;;6.00;3.40;;;;;;99883.55;;;;107281;1279;27679;-29
2022/05/30 08:46:46;;;;;;;5.90;3.30;;;;;;99882.55;;;;107551;1279;27536;-29
2022/05/30 08:49:22;;;;;;;6.30;3.30;;;;;;99885.19;;;;109308;1277;26166;-29
2022/05/30 08:52:18;;;;;;;9.20;3.30;;;;;;99886.87;;;;107492;1278;28648;-30
2022/05/30 08:55:20;;;;;;;5.10;3.30;;;;;;99885.30;;;;107488;1278;29067;-30
2022/05/30 08:58:24;;;;;;;5.20;2.80;;;;;;99885.22;;;;107500;1278;29500;-30
2022/05/30 09:00:57;;;;;;;6.40;3.30;;;;;;99883.06;;;;107505;1279;28713;-32
2022/05/30 09:04:06;;;;;;;5.00;3.30;;;;;;99881.02;;;;107482;1278;29270;-30
2022/05/30 09:06:36;;;;;;;5.30;3.00;;;;;;99879.14;;;;107489;1278;28612;-29
2022/05/30 09:09:26;;;;;;;4.70;3.10;;;;;;99876.45;;;;107366;1280;28542;-30
2022/05/30 09:12:46;;;;;;;4.70;3.00;;;;;;99876.59;;;;107510;1278;27599;-30
2022/05/30 09:15:28;;;;;;;4.40;2.70;;;;;;99877.54;;;;107324;1279;28672;-30
2022/05/30 09:18:01;;;;;;;5.20;3.20;;;;;;99877.05;;;;107483;1278;28653;-29
2022/05/30 09:20:31;;;;;;;6.00;3.00;;;;;;99876.31;;;;107510;1278;28538;-29
2022/05/30 09:23:02;;;;;;;4.90;3.00;;;;;;99876.48;;;;107558;1278;29514;-29
2022/05/30 09:28:21;;;;;;;3.90;2.50;;;;;;99880.25;;;;107480;1278;27464;-30
2022/05/30 09:31:14;;;;;;;5.20;2.80;;;;;;99877.66;;;;107487;1278;28652;-31
2022/05/30 09:33:45;;;;;;;4.30;2.50;;;;;;99880.06;;;;107503;1278;28530;-30
2022/05/30 09:36:18;;;;;;;4.70;3.10;;;;;;99880.05;;;;107499;1277;28718;-30
2022/05/30 09:38:55;;;;;;;4.40;2.70;;;;;;99883.58;;;;107499;1278;28625;-30
2022/05/30 09:41:37;;;;;;;4.80;2.90;;;;;;99879.95;;;;107479;1278;29323;-30
2022/05/30 09:44:26;;;;;;;4.40;2.50;;;;;;99877.61;;;;107456;1278;28544;-30
2022/05/30 09:47:06;;;;;;;5.40;2.80;;;;;;99875.60;;;;107467;1278;27397;-30
2022/05/30 09:49:36;;;;;;;3.80;2.40;;;;;;99877.81;;;;107432;1277;29386;-29
2022/05/30 09:52:21;;;;;;;4.60;2.50;;;;;;99877.16;;;;107463;1278;26591;-29
2022/05/30 09:54:48;;;;;;;4.70;2.50;;;;;;99878.31;;;;107483;1279;29695;-29
2022/05/30 09:57:41;;;;;;;4.90;2.60;;;;;;99876.63;;;;107465;1278;28506;-28
2022/05/30 10:00:15;;;;;;;3.70;2.20;;;;;;99877.98;;;;107474;1277;27415;-29
2022/05/30 10:02:45;;;;;;;5.10;2.40;;;;;;99876.52;;;;107474;1278;29605;-29
2022/05/30 10:05:15;;;;;;;5.00;2.70;;;;;;99874.91;;;;107497;1278;29628;-29
2022/05/30 10:08:02;;;;;;;5.20;2.80;;;;;;99875.50;;;;107484;1278;28630;-29
2022/05/30 10:10:51;;;;;;;5.50;2.90;;;;;;99872.89;;;;107462;1278;27381;-29
2022/05/30 10:13:41;;;;;;;4.30;2.40;;;;;;99874.09;;;;107500;1278;29643;-29
2022/05/30 10:16:12;;;;;;;4.00;2.20;;;;;;99871.18;;;;107470;1278;29742;-29
2022/05/30 10:18:54;;;;;;;4.10;2.40;;;;;;99873.55;;;;107476;1279;28862;-29
2022/05/30 10:28:39;;;;;;;4.60;2.40;;;;;;99877.84;;;;107498;1279;28550;-29
2022/05/30 10:31:20;;;;;;;3.90;2.30;;;;;;99883.11;;;;107509;1277;28776;-29
2022/05/30 10:33:56;;;;;;;4.40;2.30;;;;;;99883.77;;;;107464;1278;27607;-28
2022/05/30 10:36:38;;;;;;;4.90;2.40;;;;;;99885.70;;;;107461;1277;27366;-29
2022/05/30 10:40:06;;;;;;;4.10;2.20;;;;;;99884.95;;;;107484;1278;28531;-29
2022/05/30 10:42:43;;;;;;;3.80;2.30;;;;;;99888.76;;;;107476;1278;26585;-30
2022/05/30 10:45:18;;;;;;;3.90;2.30;;;;;;99891.46;;;;107460;1277;30381;-29
2022/05/30 10:47:48;;;;;;;3.50;2.30;;;;;;99897.48;;;;107483;1277;28552;-30
2022/05/30 10:50:42;;;;;;;4.10;2.40;;;;;;99893.47;;;;107511;1278;28644;-30
2022/05/30 10:53:32;;;;;;;6.50;2.40;;;;;;99899.33;;;;107502;1279;28820;-29
2022/05/30 10:56:11;;;;;;;4.30;2.30;;;;;;99899.45;;;;107450;1279;26116;-29
2022/05/30 10:59:22;;;;;;;4.20;2.40;;;;;;99903.92;;;;107476;1277;29585;-30
2022/05/30 11:02:11;;;;;;;4.50;2.10;;;;;;99903.84;;;;107446;1277;30157;-28
2022/05/30 11:05:06;;;;;;;3.90;2.30;;;;;;99900.64;;;;107460;1278;28645;-29
2022/05/30 11:07:42;;;;;;;4.80;2.20;;;;;;99901.16;;;;107470;1278;28630;-29
2022/05/30 11:10:20;;;;;;;4.20;2.50;;;;;;99904.20;;;;107483;1277;28726;-30
2022/05/30 11:12:57;;;;;;;3.70;2.20;;;;;;99901.50;;;;107484;1278;29836;-29
2022/05/30 11:15:32;;;;;;;4.50;2.40;;;;;;99898.27;;;;107488;1278;28790;-29
2022/05/30 11:18:16;;;;;;;6.50;2.20;;;;;;99897.46;;;;107486;1278;29297;-28
2022/05/30 11:21:01;;;;;;;5.10;2.20;;;;;;99899.90;;;;107497;1278;29613;-29
2022/05/30 11:23:28;;;;;;;4.80;2.30;;;;;;99902.30;;;;107466;1277;28678;-30
2022/05/30 11:26:18;;;;;;;6.30;2.10;;;;;;99899.98;;;;107487;1278;29567;-30
2022/05/30 11:29:27;;;;;;;3.80;2.10;;;;;;99901.54;;;;107480;1277;28571;-31
2022/05/30 11:32:14;;;;;;;5.10;2.40;;;;;;99902.48;;;;107488;1277;28657;-30
2022/05/30 11:35:09;;;;;;;4.80;1.90;;;;;;99901.57;;;;107489;1278;27480;-30
2022/05/30 11:38:00;;;;;;;3.20;1.90;;;;;;99905.34;;;;107524;1277;27588;-30
2022/05/30 11:40:49;;;;;;;4.20;2.20;;;;;;99905.60;;;;107523;1278;29611;-30
2022/05/30 11:43:43;;;;;;;3.50;2.00;;;;;;99904.52;;;;107514;1277;28710;-29
2022/05/30 11:46:26;;;;;;;4.70;2.30;;;;;;99904.27;;;;107518;1278;28495;-30
2022/05/30 11:49:20;;;;;;;3.90;1.90;;;;;;99898.84;;;;107501;1279;28664;-29
2022/05/30 11:52:02;;;;;;;4.00;2.10;;;;;;99900.79;;;;107522;1277;28689;-30
2022/05/30 11:54:39;;;;;;;3.60;2.20;;;;;;99897.12;;;;107520;1277;30155;-30
2022/05/30 11:57:09;;;;;;;4.60;1.80;;;;;;99899.64;;;;107518;1277;27559;-29
2022/05/30 12:00:19;;;;;;;3.90;2.30;;;;;;99897.02;;;;107506;1277;28684;-30
2022/05/30 12:02:58;;;;;;;4.10;2.70;;;;;;99897.73;;;;107513;1277;27495;-30
2022/05/30 12:06:02;;;;;;;3.90;2.30;;;;;;99897.17;;;;107528;1278;28726;-29
2022/05/30 12:09:09;;;;;;;;;;;;;;99897.17;;;;107525;1278;28848;-29
2022/05/30 12:12:25;;;;;;;4.70;2.80;;;;;;99902.31;;;;107070;1278;28657;-32
2022/05/30 12:15:45;;;;;;;4.20;2.80;;;;;;99906.53;;;;107496;1278;26451;-30
2022/05/30 12:24:19;;;;;;;4.00;2.20;;;;;;99911.61;;;;107404;1279;28859;-30
2022/05/30 12:26:56;;;;;;;3.50;2.00;;;;;;99911.36;;;;107501;1278;28775;-30
2022/05/30 12:29:35;;;;;;;3.80;1.90;;;;;;99913.66;;;;107483;1277;28500;-30
2022/05/30 12:32:33;;;;;;;3.90;2.00;;;;;;99910.65;;;;107494;1277;28752;-30
2022/05/30 12:35:10;;;;;;;3.50;2.00;;;;;;99912.91;;;;107490;1279;28656;-30
2022/05/30 12:37:58;;;;;;;3.60;1.90;;;;;;99912.05;;;;107332;1278;28591;-28
2022/05/30 12:40:27;;;;;;;4.60;2.10;;;;;;99912.23;;;;107319;1278;28547;-29
2022/05/30 12:43:23;;;;;;;3.00;1.80;;;;;;99915.48;;;;107309;1279;26659;-29
2022/05/30 12:45:55;;;;;;;4.60;2.00;;;;;;99920.05;;;;107369;1278;26630;-29
2022/05/30 12:48:39;;;;;;;3.90;1.90;;;;;;99924.39;;;;107487;1278;27441;-30
2022/05/30 12:51:24;;;;;;;3.40;1.90;;;;;;99929.02;;;;107488;1277;30027;-31
2022/05/30 12:54:00;;;;;;;3.40;1.80;;;;;;99938.40;;;;107492;1277;28690;-29
2022/05/30 12:56:36;;;;;;;4.30;2.40;;;;;;99940.34;;;;107484;1278;29661;-29
2022/05/30 12:59:03;;;;;;;3.30;1.80;;;;;;99940.72;;;;107508;1278;27527;-29
2022/05/30 13:01:48;;;;;;;3.30;1.90;;;;;;99938.97;;;;107509;1278;27607;-29
2022/05/30 13:04:15;;;;;;;4.00;2.00;;;;;;99944.37;;;;107515;1278;29252;-31
2022/05/30 13:06:53;;;;;;;3.60;2.00;;;;;;99946.70;;;;107502;1278;27505;-28
2022/05/30 13:09:45;;;;;;;4.80;2.10;;;;;;99953.27;;;;107513;1278;28590;-27
2022/05/30 13:12:11;;;;;;;4.20;2.30;;;;;;99958.09;;;;107512;1278;27598;-27
2022/05/30 13:15:06;;;;;;;3.20;1.90;;;;;;99964.96;;;;107508;1278;27441;-29
2022/05/30 13:17:53;;;;;;;3.60;1.90;;;;;;99971.58;;;;107474;1278;28796;-30
2022/05/30 13:20:39;;;;;;;3.40;2.00;;;;;;99980.13;;;;107516;1279;29640;-29
2022/05/30 13:23:06;;;;;;;3.70;2.20;;;;;;99979.89;;;;107537;1278;26948;-31
2022/05/30 13:25:42;;;;;;;3.50;2.00;;;;;;99982.45;;;;107525;1277;27512;-29
2022/05/30 13:28:33;;;;;;;3.80;2.10;;;;;;99987.41;;;;107377;1278;210601;-29
2022/05/30 13:31:06;;;;;;;3.70;2.10;;;;;;99988.63;;;;107541;1278;29682;-30
2022/05/30 13:33:39;;;;;;;4.60;2.30;;;;;;99991.48;;;;107550;1278;29712;-30
2022/05/30 13:36:25;;;;;;;3.50;2.00;;;;;;99988.91;;;;107506;1277;27683;-32
2022/05/30 13:38:54;;;;;;;3.50;2.00;;;;;;99989.40;;;;107510;1278;28638;-30
2022/05/30 13:41:20;;;;;;;4.10;2.00;;;;;;99991.60;;;;107524;1279;28195;-29
2022/05/30 13:43:51;;;;;;;3.70;2.00;;;;;;99992.45;;;;107480;1278;28413;-29
2022/05/30 13:46:28;;;;;;;3.20;1.90;;;;;;99990.02;;;;107523;1277;28595;-28
2022/05/30 13:48:55;;;;;;;4.10;2.30;;;;;;99989.39;;;;107480;1278;26237;-30
2022/05/30 13:51:45;;;;;;;3.70;2.00;;;;;;99997.60;;;;107485;1278;26447;-31
2022/05/30 13:54:13;;;;;;;4.40;2.00;;;;;;99998.92;;;;107455;1277;27404;-30
2022/05/30 13:56:44;;;;;;;4.50;2.10;;;;;;99995.79;;;;107502;1278;28706;-30
2022/05/30 13:59:33;;;;;;;5.60;2.20;;;;;;99999.52;;;;107495;1278;26606;-30
2022/05/30 14:02:04;;;;;;;3.20;2.00;;;;;;99999.29;;;;107508;1278;28722;-30